Delray Beach, FL (33444)

2:44 PM EDT on July 25, 2016 (GMT -0400)
Lake Ida - Garden House | | Change Station

Elev 0 ft 26.48 °N, 80.07 °W | Updated 13 minutes ago

Scattered Clouds
Scattered Clouds
93.0 °F
Feels Like 110 °F
N
4.7
Wind Variable Wind from ESE

Today
High -- | Low -- °F
--% Chance of Precip.
Yesterday
High -- | Low -- °F
Precip. -- in
Pressure 30.07 in
Visibility 10.0 miles
Clouds Scattered Clouds 3200 ft
Heat Index 110 °F
Dew Point 78 °F
Humidity 63%
Rainfall 0.00 in
Snow Depth Not available.
6:42 AM 8:11 PM
Waning Gibbous, 63% visible
METAR KPMP 251753Z 13011KT 10SM SCT032 32/24 A3006 RMK AO2 SLP181 T03220239 10322 20283 58009
Pressure 30.07 in
Visibility 10.0 miles
Clouds Scattered Clouds 3200 ft
Heat Index 110 °F
Dew Point 78 °F
Humidity 63%
Rainfall 0.00 in
Snow Depth Not available.
6:42 AM 8:11 PM
Waning Gibbous, 63% visible
METAR KPMP 251753Z 13011KT 10SM SCT032 32/24 A3006 RMK AO2 SLP181 T03220239 10322 20283 58009
Record highs are possible for parts of the Northeast Monday and Tuesday, as parts of the central U.S. take a little breather from the worst of summer's dog day heat.

Expansive high pressure in the upper atmosphere will focus on parts of the East and West this week, sending heat indices well into the triple digits from the Mid-Atlantic states into the South.

10-Day Weather Forecast

Almanac

Astronomy

Jul. 25, 2016 Rise Set
Actual Time
Civil Twilight
Nautical Twilight
Astronomical Twilight
Moon
Length of Visible Light
Length of Day
Tomorrow will be .
, % of the Moon is Illuminated

Today's Extremes

State Highs State Lows

Community

WunderPhotos

Upload Photos

1,927,370 photos uploaded!

WunderBlog® & News

Nearby

Air Quality

  Air Quality AQ Index Pollutant
Not available.

Snow Depth

Station Depth Elevation

Earthquake Activity

City Distance Mag. Time & Date
Minimum magnitude displayed is 2.5.

Coastal Water Temperatures

Place Temperature

Stations

Nearby Weather Stations

Station Location Temp. Windchill Dew Point Humidity Wind Precip. Elev Updated Type
                   

Watches & Warnings

There are currently no watches in effect.